Time;durP1;ratioP1;P1;durP2;ratioP2;P2;SDS_P1;SDS_P2;PMS_P1;PMS_P2;Temp;Humidity;BMP_temperature;BMP_pressure;BME280_temperature;BME280_humidity;BME280_pressure;Samples;Min_cycle;Max_cycle;Signal;HPM_P1;HPM_P2
2023/06/09 00:01:22;;;;;;;15.63;6.10;;;;;;;;;;6306114;22;20053;-90
2023/06/09 00:04:08;;;;;;;16.42;5.97;;;;;;;;;;6283781;22;20083;-91
2023/06/09 00:06:54;;;;;;;14.20;4.95;;;;;;;;;;6305273;22;20037;-89
2023/06/09 00:09:39;;;;;;;22.13;6.47;;;;;;;;;;6305227;22;20013;-89
2023/06/09 00:12:24;;;;;;;15.50;5.78;;;;;;;;;;6282938;22;20018;-90
2023/06/09 00:15:14;;;;;;;23.27;6.00;;;;;;;;;;6304690;22;20100;-91
2023/06/09 00:18:02;;;;;;;12.75;6.35;;;;;;;;;;6306181;22;20064;-90
2023/06/09 00:20:50;;;;;;;17.60;6.07;;;;;;;;;;6306345;22;20448;-89
2023/06/09 00:23:35;;;;;;;20.63;5.50;;;;;;;;;;6304566;22;20445;-90
2023/06/09 00:26:19;;;;;;;19.08;5.60;;;;;;;;;;6304025;22;20014;-90
2023/06/09 00:29:04;;;;;;;15.60;7.18;;;;;;;;;;6304680;22;20014;-90
2023/06/09 00:31:48;;;;;;;20.50;7.63;;;;;;;;;;6304853;22;20018;-91
2023/06/09 00:34:33;;;;;;;21.13;6.43;;;;;;;;;;6282494;22;20019;-90
2023/06/09 00:37:18;;;;;;;20.65;7.60;;;;;;;;;;6304090;22;20109;-91
2023/06/09 00:40:03;;;;;;;17.85;6.28;;;;;;;;;;6306015;22;20441;-89
2023/06/09 00:42:48;;;;;;;18.67;6.30;;;;;;;;;;6283138;22;20068;-90
2023/06/09 00:45:32;;;;;;;26.67;7.55;;;;;;;;;;6304416;22;20013;-91
2023/06/09 00:48:17;;;;;;;18.33;7.25;;;;;;;;;;6304079;22;20509;-90
2023/06/09 00:51:01;;;;;;;13.70;6.93;;;;;;;;;;6305364;22;20145;-91
2023/06/09 00:53:46;;;;;;;18.00;6.03;;;;;;;;;;6306263;22;20042;-90
2023/06/09 00:56:31;;;;;;;16.00;5.88;;;;;;;;;;6305250;22;20053;-90
2023/06/09 00:59:16;;;;;;;16.10;6.28;;;;;;;;;;6304882;22;20041;-91
2023/06/09 01:02:01;;;;;;;17.90;6.28;;;;;;;;;;6306840;22;20372;-91
2023/06/09 01:04:49;;;;;;;26.45;7.38;;;;;;;;;;6308128;22;20060;-90
2023/06/09 01:07:54;;;;;;;13.48;5.95;;;;;;;;;;6306230;22;20767;-90
2023/06/09 01:11:04;;;;;;;14.00;6.35;;;11.90;99.90;;;;;;6307431;22;20033;-91
2023/06/09 01:14:07;;;;;;;22.65;6.65;;;11.90;99.90;;;;;;6285137;22;20479;-91
2023/06/09 01:17:11;;;;;;;10.63;6.32;;;;;;;;;;6306665;22;20064;-90
2023/06/09 01:19:57;;;;;;;14.35;5.57;;;;;;;;;;6307051;22;20014;-91
2023/06/09 01:22:42;;;;;;;14.27;6.18;;;;;;;;;;6307989;22;20018;-90
2023/06/09 01:25:27;;;;;;;15.68;5.95;;;;;;;;;;6307182;22;20011;-91
2023/06/09 01:28:12;;;;;;;23.90;6.95;;;;;;;;;;6307718;22;20014;-90
2023/06/09 01:30:57;;;;;;;16.30;6.50;;;;;;;;;;6306344;22;20015;-90
2023/06/09 01:33:43;;;;;;;15.18;5.70;;;;;;;;;;6284320;22;20019;-91
2023/06/09 01:36:29;;;;;;;23.33;6.88;;;;;;;;;;6306014;22;20322;-91
2023/06/09 01:39:14;;;;;;;21.90;7.10;;;;;;;;;;6306276;22;20014;-92
2023/06/09 01:41:59;;;;;;;17.15;6.03;;;;;;;;;;6284823;22;20099;-90
2023/06/09 01:44:44;;;;;;;18.67;6.07;;;;;;;;;;6305953;22;20073;-91
2023/06/09 01:47:28;;;;;;;18.92;8.23;;;;;;;;;;6283976;22;20530;-90
2023/06/09 01:50:19;;;;;;;19.67;6.63;;;;;;;;;;6284636;22;20050;-91
2023/06/09 01:53:27;;;;;;;15.35;6.20;;;;;;;;;;6306007;22;20061;-90
2023/06/09 01:56:21;;;;;;;18.10;8.15;;;;;;;;;;6307232;22;20188;-90
2023/06/09 01:59:07;;;;;;;18.88;6.30;;;;;;;;;;6306284;22;20499;-91
2023/06/09 02:01:53;;;;;;;18.52;7.38;;;;;;;;;;6306054;22;20310;-91
2023/06/09 02:04:38;;;;;;;23.50;7.35;;;;;;;;;;6306859;22;20468;-90
2023/06/09 02:07:23;;;;;;;21.38;6.95;;;;;;;;;;6305692;22;20080;-93
2023/06/09 02:10:08;;;;;;;24.05;7.72;;;;;;;;;;6307163;22;20014;-91
2023/06/09 02:12:53;;;;;;;21.13;7.43;;;;;;;;;;6305866;22;20022;-91
2023/06/09 02:15:37;;;;;;;17.48;6.88;;;;;;;;;;6283587;22;20034;-90
2023/06/09 02:18:22;;;;;;;19.95;7.13;;;;;;;;;;6307092;22;20531;-90
2023/06/09 02:21:08;;;;;;;20.08;7.47;;;;;;;;;;6305907;22;20380;-90
2023/06/09 02:23:52;;;;;;;22.33;8.82;;;;;;;;;;6305948;22;20022;-90
2023/06/09 02:26:37;;;;;;;21.55;7.78;;;;;;;;;;6283684;22;20034;-91
2023/06/09 02:29:23;;;;;;;20.52;8.23;;;;;;;;;;6305898;22;20452;-89
2023/06/09 02:32:08;;;;;;;20.23;7.50;;;;;;;;;;6306193;22;20338;-90
2023/06/09 02:34:53;;;;;;;19.02;7.30;;;;;;;;;;6305851;22;20022;-91
2023/06/09 02:37:37;;;;;;;14.57;6.82;;;;;;;;;;6306191;22;20014;-91
2023/06/09 02:40:22;;;;;;;21.20;7.22;;;;;;;;;;6305692;22;20064;-91
2023/06/09 02:43:07;;;;;;;25.00;8.35;;;;;;;;;;6305926;22;20025;-91
2023/06/09 02:45:51;;;;;;;23.67;7.97;;;;;;;;;;6283388;22;20512;-91
2023/06/09 02:48:36;;;;;;;21.90;8.70;;;;;;;;;;6305141;22;20056;-91
2023/06/09 02:51:20;;;;;;;18.95;6.80;;;;;;;;;;6306789;22;20049;-91
2023/06/09 02:54:05;;;;;;;24.45;8.18;;;;;;;;;;6305476;22;20037;-91
2023/06/09 02:56:51;;;;;;;28.67;8.57;;;;;;;;;;6306129;22;20624;-90
2023/06/09 02:59:36;;;;;;;16.65;7.22;;;;;;;;;;6306248;22;20069;-91
2023/06/09 03:02:20;;;;;;;23.95;7.50;;;;;;;;;;6307378;22;20065;-92
2023/06/09 03:05:05;;;;;;;21.05;8.55;;;;;;;;;;6284194;22;20018;-91
2023/06/09 03:07:50;;;;;;;21.90;7.93;;;;;;;;;;6307464;22;20022;-91
2023/06/09 03:10:35;;;;;;;25.08;8.20;;;;;;;;;;6305855;22;20065;-91
2023/06/09 03:13:19;;;;;;;27.75;8.32;;;;;;;;;;6306550;22;20026;-90
2023/06/09 03:16:04;;;;;;;19.30;7.95;;;;;;;;;;6308051;22;20061;-90
2023/06/09 03:18:49;;;;;;;20.02;7.43;;;;;;;;;;6323089;22;20073;-90
2023/06/09 03:21:35;;;;;;;28.15;8.05;;;;;;;;;;6324875;22;20056;-92
2023/06/09 03:24:20;;;;;;;20.02;7.85;;;;;;;;;;6322042;22;20106;-90
2023/06/09 03:27:05;;;;;;;25.63;9.05;;;;;;;;;;6322845;22;20018;-90
2023/06/09 03:29:50;;;;;;;19.95;7.82;;;;;;;;;;6301660;22;20018;-89
2023/06/09 03:32:35;;;;;;;27.83;8.82;;;;;;;;;;6302239;22;20017;-91
2023/06/09 03:35:20;;;;;;;26.77;8.95;;;;;;;;;;6316104;22;20061;-91
2023/06/09 03:38:05;;;;;;;29.25;8.68;;;;;;;;;;6306860;22;20100;-89
2023/06/09 03:40:50;;;;;;;23.50;8.55;;;;;;;;;;6307067;22;20022;-90
2023/06/09 03:43:37;;;;;;;20.08;7.93;;;;;;;;;;6307363;22;20085;-91
2023/06/09 03:46:22;;;;;;;21.42;7.22;;;;;;;;;;6307889;22;20389;-90
2023/06/09 03:49:07;;;;;;;24.27;8.82;;;;;;;;;;6308051;22;20018;-91
2023/06/09 03:51:51;;;;;;;22.50;7.35;;;;;;;;;;6306814;22;20011;-91
2023/06/09 03:54:36;;;;;;;23.83;7.90;;;;;;;;;;6305570;22;20346;-90
2023/06/09 03:57:20;;;;;;;25.55;8.20;;;;;;;;;;6306697;22;20054;-91
2023/06/09 04:00:06;;;;;;;20.42;7.80;;;;;;;;;;6306444;22;20433;-90
2023/06/09 04:02:50;;;;;;;19.75;7.97;;;;;;;;;;6282694;22;20098;-90
2023/06/09 04:05:35;;;;;;;23.50;8.90;;;;;;;;;;6306192;22;20037;-89
2023/06/09 04:08:20;;;;;;;21.80;7.57;;;;;;;;;;6283185;22;20023;-90
2023/06/09 04:11:05;;;;;;;25.77;8.07;;;;;;;;;;6305997;22;20068;-90
2023/06/09 04:13:49;;;;;;;21.40;8.35;;;;;;;;;;6305317;22;20041;-90
2023/06/09 04:16:34;;;;;;;23.08;8.98;;;;;;;;;;6304627;22;20014;-89
2023/06/09 04:19:19;;;;;;;27.35;7.65;;;;;;;;;;6304927;22;20030;-91
2023/06/09 04:22:05;;;;;;;18.55;7.13;;;;;;;;;;6305280;22;20057;-90
2023/06/09 04:24:49;;;;;;;22.27;10.15;;;;;;;;;;6304413;22;20057;-90
2023/06/09 04:27:34;;;;;;;22.25;8.30;;;;;;;;;;6304676;22;20061;-90
2023/06/09 04:30:24;;;;;;;21.30;7.95;;;;;;;;;;6305982;22;20065;-89
2023/06/09 04:33:09;;;;;;;24.70;8.07;;;;;;;;;;6304841;22;20057;-89
2023/06/09 04:35:54;;;;;;;19.42;8.20;;;;;;;;;;6304107;22;20009;-90
2023/06/09 04:38:39;;;;;;;19.85;7.90;;;;;;;;;;6304658;22;20019;-88
2023/06/09 04:41:25;;;;;;;18.17;7.82;;;;;;;;;;6304949;22;20026;-90
2023/06/09 04:44:10;;;;;;;25.00;9.02;;;;;;;;;;6306097;22;20417;-89
2023/06/09 04:47:00;;;;;;;23.05;8.02;;;;;;;;;;6282925;22;20022;-89
2023/06/09 04:49:46;;;;;;;24.63;7.97;;;;;;;;;;6304223;22;20064;-91
2023/06/09 04:52:31;;;;;;;19.60;7.97;;;;;;;;;;6304808;22;20090;-91
2023/06/09 04:55:18;;;;;;;21.67;7.72;;;;;;;;;;6304500;22;20018;-91
2023/06/09 04:58:03;;;;;;;20.05;8.65;;;;;;;;;;6303633;22;20086;-91
2023/06/09 05:00:48;;;;;;;23.52;8.25;;;;;;;;;;6282374;22;20018;-92
2023/06/09 05:03:33;;;;;;;20.80;8.50;;;;;;;;;;6304500;22;20017;-93
2023/06/09 05:06:18;;;;;;;21.08;8.63;;;;;;;;;;6304540;22;20058;-91
2023/06/09 05:09:03;;;;;;;23.35;10.18;;;;;;;;;;6304903;22;20050;-90
2023/06/09 05:11:48;;;;;;;21.58;8.48;;;;;;;;;;6305360;22;20034;-93
2023/06/09 05:14:32;;;;;;;22.30;8.18;;;;;;;;;;6304326;22;20068;-92
2023/06/09 05:17:16;;;;;;;19.42;8.77;;;;;;;;;;6282072;22;20097;-91
2023/06/09 05:20:01;;;;;;;15.60;7.80;;;;;;;;;;6282308;22;20390;-93
2023/06/09 05:22:46;;;;;;;21.13;8.15;;;;;;;;;;6304622;22;20018;-91
2023/06/09 05:25:30;;;;;;;20.58;8.68;;;;;;;;;;6305536;22;20342;-92
2023/06/09 05:28:15;;;;;;;22.80;8.68;;;;;;;;;;6304189;22;20046;-92
2023/06/09 05:30:59;;;;;;;20.42;8.02;;;;;;;;;;6303687;22;20053;-90
2023/06/09 05:33:44;;;;;;;16.25;8.13;;;;;;;;;;6304404;22;20046;-91
2023/06/09 05:36:29;;;;;;;16.77;7.50;;;;;;;;;;6304407;22;20069;-93
2023/06/09 05:39:14;;;;;;;21.98;8.32;;;;;;;;;;6305137;22;20771;-91
2023/06/09 05:41:58;;;;;;;23.17;8.15;;;;;;;;;;6281273;22;20015;-93
2023/06/09 05:44:43;;;;;;;18.00;8.95;;;;;;;;;;6306623;22;20022;-91
2023/06/09 05:47:29;;;;;;;18.75;8.43;;;;;;;;;;6306473;22;20092;-89
2023/06/09 05:50:13;;;;;;;18.85;8.07;;;;;;;;;;6306018;22;20064;-91
2023/06/09 05:52:58;;;;;;;20.42;8.70;;;;;;;;;;6284197;22;20556;-90
2023/06/09 05:55:44;;;;;;;19.55;9.38;;;;;;;;;;6307679;22;20049;-91
2023/06/09 05:58:33;;;;;;;16.95;8.70;;;;;;;;;;6306613;22;20022;-92
2023/06/09 06:01:18;;;;;;;26.48;8.70;;;;;;;;;;6306100;22;20398;-91
2023/06/09 06:04:02;;;;;;;23.77;9.50;;;;;;;;;;6306463;22;20360;-92
2023/06/09 06:06:47;;;;;;;26.27;8.05;;;;;;;;;;6307256;22;20334;-91
2023/06/09 06:09:32;;;;;;;18.33;7.45;;;;;;;;;;6283928;22;20018;-92
2023/06/09 06:12:16;;;;;;;18.73;7.72;;;;;;;;;;6306541;22;20157;-92
2023/06/09 06:15:01;;;;;;;21.75;7.80;;;;;;;;;;6305256;22;20018;-92
2023/06/09 06:17:48;;;;;;;23.25;7.30;;;;;;;;;;6283725;22;20080;-91
2023/06/09 06:20:32;;;;;;;19.00;7.43;;;;;;;;;;6307231;22;20021;-91
2023/06/09 06:23:17;;;;;;;15.57;8.18;;;;;;;;;;6283553;22;20134;-90
2023/06/09 06:26:01;;;;;;;18.38;8.43;;;;;;;;;;6305287;22;20068;-91
2023/06/09 06:28:46;;;;;;;16.65;8.95;;;;;;;;;;6307101;22;20518;-91
2023/06/09 06:31:31;;;;;;;15.38;7.93;;;;;;;;;;6305710;22;20338;-89
2023/06/09 06:34:15;;;;;;;20.75;8.82;;;;;;;;;;6283299;22;20014;-91
2023/06/09 06:37:00;;;;;;;26.25;10.00;;;;;;;;;;6305685;22;20022;-92
2023/06/09 06:39:45;;;;;;;19.25;9.07;;;;;;;;;;6307878;22;20108;-91
2023/06/09 06:42:29;;;;;;;16.63;8.38;;;;;;;;;;6283959;22;20018;-91
2023/06/09 06:45:14;;;;;;;19.60;9.25;;;;;;;;;;6306460;22;20049;-93
2023/06/09 06:48:00;;;;;;;19.17;8.02;;;;;;;;;;6306909;22;20019;-90
2023/06/09 06:50:45;;;;;;;18.27;7.95;;;;;;;;;;6307383;22;20136;-91
2023/06/09 06:53:29;;;;;;;16.40;7.55;;;;;;;;;;6307455;22;20010;-91
2023/06/09 06:56:14;;;;;;;15.73;8.18;;;;;;;;;;6304768;22;20014;-90
2023/06/09 06:58:59;;;;;;;16.65;7.57;;;;;;;;;;6283765;22;20060;-90
2023/06/09 07:01:45;;;;;;;16.80;7.10;;;;;;;;;;6307148;22;20019;-90
2023/06/09 07:04:30;;;;;;;18.00;7.57;;;;;;;;;;6284226;22;20514;-91
2023/06/09 07:07:15;;;;;;;15.95;8.13;;;;;;;;;;6283126;22;20022;-91
2023/06/09 07:10:00;;;;;;;17.63;7.28;;;;;;;;;;6283482;22;20065;-90
2023/06/09 07:12:44;;;;;;;17.55;8.13;;;;;;;;;;6304931;22;20057;-90
2023/06/09 07:15:29;;;;;;;16.60;8.27;;;;;;;;;;6305925;22;20022;-89
2023/06/09 07:18:14;;;;;;;13.60;6.82;;;;;;;;;;6283335;22;20030;-91
2023/06/09 07:20:59;;;;;;;13.63;6.55;;;;;;;;;;6305258;22;20021;-92
2023/06/09 07:23:44;;;;;;;18.77;7.50;;;;;;;;;;6305128;22;20018;-90
2023/06/09 07:26:29;;;;;;;13.00;5.78;;;;;;;;;;6282803;22;20343;-91
2023/06/09 07:29:13;;;;;;;16.67;6.80;;;;;;;;;;6304235;22;20449;-91
2023/06/09 07:31:58;;;;;;;16.67;6.65;;;;;;;;;;6305020;22;20508;-91
2023/06/09 07:34:45;;;;;;;15.10;6.40;;;;;;;;;;6305158;22;20453;-91
2023/06/09 07:37:31;;;;;;;22.55;6.18;;;;;;;;;;6304485;22;20068;-91
2023/06/09 07:40:15;;;;;;;13.93;5.97;;;;;;;;;;6304353;22;20023;-91
2023/06/09 07:43:00;;;;;;;15.10;6.57;;;;;;;;;;6305965;22;20021;-91
2023/06/09 07:45:46;;;;;;;14.52;6.03;;;;;;;;;;6282940;22;20414;-91
2023/06/09 07:48:30;;;;;;;13.00;6.07;;;;;;;;;;6282545;22;20263;-91
2023/06/09 07:51:16;;;;;;;15.60;6.85;;;;;;;;;;6304135;22;20086;-91
2023/06/09 07:54:02;;;;;;;16.13;5.28;;;;;;;;;;6284266;22;20022;-91
2023/06/09 07:56:49;;;;;;;11.95;5.25;;;;;;;;;;6284018;22;20060;-91
2023/06/09 07:59:34;;;;;;;15.77;4.70;;;;;;;;;;6304579;22;20018;-91
2023/06/09 08:02:18;;;;;;;14.75;5.70;;;;;;;;;;6304182;22;20053;-91
2023/06/09 08:05:03;;;;;;;14.23;6.20;;;;;;;;;;6306035;22;20022;-92
2023/06/09 08:07:47;;;;;;;15.38;5.28;;;;;;;;;;6305140;22;20069;-91
2023/06/09 08:10:32;;;;;;;14.82;5.30;;;;;;;;;;6303820;22;20042;-92
2023/06/09 08:13:17;;;;;;;16.27;4.70;;;;;;;;;;6305214;22;20018;-91
2023/06/09 08:16:01;;;;;;;13.60;4.60;;;;;;;;;;6282680;22;20061;-92
2023/06/09 08:18:45;;;;;;;12.90;4.45;;;;;;;;;;6308087;22;20025;-91
2023/06/09 08:21:30;;;;;;;9.52;4.40;;;;;;;;;;6305299;22;20019;-91
2023/06/09 08:24:15;;;;;;;13.82;4.95;;;;;;;;;;6282499;22;20049;-91
2023/06/09 08:26:59;;;;;;;10.52;5.35;;;;;;;;;;6305766;22;20456;-90
2023/06/09 08:29:44;;;;;;;9.30;3.97;;;;;;;;;;6282665;22;20034;-91
2023/06/09 08:32:28;;;;;;;12.32;4.45;;;;;;;;;;6305135;22;20030;-93
2023/06/09 08:35:13;;;;;;;14.00;4.93;;;;;;;;;;6305824;22;20104;-92
2023/06/09 08:37:57;;;;;;;10.55;4.30;;;;;;;;;;6282415;22;20018;-92
2023/06/09 08:40:42;;;;;;;9.38;3.70;;;;;;;;;;6305419;22;20022;-91
2023/06/09 08:43:27;;;;;;;7.68;4.10;;;;;;;;;;6304840;22;20014;-92
2023/06/09 08:46:12;;;;;;;9.30;3.72;;;;;;;;;;6305383;22;20384;-91
2023/06/09 08:49:01;;;;;;;8.00;3.47;;;23.60;96.90;;;;;;6305603;22;20326;-90
2023/06/09 08:51:46;;;;;;;8.40;3.58;;;;;;;;;;6282973;22;20475;-91
2023/06/09 08:54:31;;;;;;;13.32;3.65;;;;;;;;;;6304889;22;20014;-91
2023/06/09 08:57:16;;;;;;;15.40;4.45;;;;;;;;;;6305290;22;20091;-91
2023/06/09 09:00:04;;;;;;;9.15;3.75;;;;;;;;;;6305191;22;20018;-91
2023/06/09 09:02:49;;;;;;;9.30;4.13;;;;;;;;;;6305566;22;20018;-92
2023/06/09 09:05:34;;;;;;;10.02;3.40;;;;;;;;;;6304787;22;20337;-91
2023/06/09 09:08:20;;;;;;;9.88;3.80;;;;;;;;;;6306570;22;20397;-92
2023/06/09 09:11:05;;;;;;;9.57;3.45;;;;;;;;;;6307445;22;20017;-91
2023/06/09 09:13:50;;;;;;;8.82;3.50;;;;;;;;;;6305637;22;20062;-92
2023/06/09 09:16:34;;;;;;;10.40;3.97;;;;;;;;;;6303440;22;20017;-90
2023/06/09 09:19:30;;;;;;;11.07;3.38;;;;;;;;;;6305789;22;20022;-90
2023/06/09 09:22:15;;;;;;;7.60;3.92;;;;;;;;;;6307290;22;20018;-91
2023/06/09 09:25:00;;;;;;;12.85;3.72;;;;;;;;;;6307181;22;20137;-91
2023/06/09 09:27:57;;;;;;;9.75;4.15;;;;;;;;;;6305347;22;20022;-91
2023/06/09 09:30:48;;;;;;;14.88;4.10;;;;;;;;;;6305278;22;20010;-89
2023/06/09 09:33:35;;;;;;;7.30;3.80;;;;;;;;;;6305256;22;20018;-90
2023/06/09 09:36:20;;;;;;;11.45;4.68;;;;;;;;;;6305980;22;20061;-91
2023/06/09 09:39:05;;;;;;;10.35;3.65;;;;;;;;;;6307079;22;20018;-90
2023/06/09 09:42:10;;;;;;;12.18;4.32;;;;;;;;;;6306727;22;20042;-90
2023/06/09 09:44:54;;;;;;;8.38;3.65;;;;;;;;;;6305768;22;20065;-91
2023/06/09 09:47:40;;;;;;;7.93;3.47;;;;;;;;;;6305262;22;20076;-90
2023/06/09 09:50:25;;;;;;;9.98;3.70;;;;;;;;;;6312629;22;20018;-90
2023/06/09 09:53:10;;;;;;;9.60;3.95;;;;;;;;;;6306951;22;20441;-90
2023/06/09 09:55:57;;;;;;;13.95;4.38;;;;;;;;;;6305656;22;20026;-92
2023/06/09 09:58:43;;;;;;;8.57;3.55;;;;;;;;;;6306174;22;20137;-92
2023/06/09 10:01:30;;;;;;;9.15;4.30;;;;;;;;;;6307191;22;20019;-91
2023/06/09 10:04:15;;;;;;;7.82;3.60;;;;;;;;;;6305754;22;20063;-90
2023/06/09 10:07:01;;;;;;;8.50;3.85;;;;;;;;;;6306922;22;20036;-89
2023/06/09 10:09:46;;;;;;;9.43;4.28;;;;;;;;;;6283799;22;20018;-91
2023/06/09 10:12:32;;;;;;;7.63;3.85;;;;;;;;;;6313979;22;20054;-91
2023/06/09 10:15:16;;;;;;;8.23;3.95;;;;;;;;;;6312594;22;20387;-90
2023/06/09 10:18:02;;;;;;;12.93;3.83;;;;;;;;;;6312155;22;20057;-91
2023/06/09 10:20:51;;;;;;;6.22;3.45;;;;;;;;;;6310371;22;20052;-90
2023/06/09 10:23:36;;;;;;;10.13;3.35;;;;;;;;;;6307303;22;20376;-90
2023/06/09 10:26:21;;;;;;;7.75;3.58;;;;;;;;;;6285125;22;20497;-89
2023/06/09 10:29:08;;;;;;;8.43;4.05;;;;;;;;;;6307529;22;20065;-91
2023/06/09 10:31:54;;;;;;;10.80;3.00;;;;;;;;;;6306474;22;20155;-91
2023/06/09 10:34:42;;;;;;;12.63;3.55;;;27.70;72.90;;;;;;6306504;22;20038;-90
2023/06/09 10:37:27;;;;;;;7.20;3.35;;;;;;;;;;6262056;22;20073;-91
2023/06/09 10:40:18;;;;;;;8.88;3.40;;;;;;;;;;6307416;22;20073;-90
2023/06/09 10:43:09;;;;;;;10.60;3.97;;;;;;;;;;6307270;22;20283;-90
2023/06/09 10:45:54;;;;;;;9.43;3.55;;;;;;;;;;6306687;22;20018;-91
2023/06/09 10:48:48;;;;;;;5.72;3.13;;;;;;;;;;6305452;22;20034;-90
2023/06/09 10:51:32;;;;;;;6.75;3.35;;;;;;;;;;6307124;22;20014;-89
2023/06/09 10:54:17;;;;;;;7.55;3.28;;;;;;;;;;6305415;22;20018;-90
2023/06/09 10:57:06;;;;;;;7.38;3.90;;;;;;;;;;6306404;22;20054;-89
2023/06/09 10:59:51;;;;;;;6.40;3.50;;;;;;;;;;6303764;22;20389;-92
2023/06/09 11:02:36;;;;;;;6.80;3.70;;;;;;;;;;6304822;22;20068;-89
2023/06/09 11:05:21;;;;;;;8.10;3.30;;;;;;;;;;6306239;22;20053;-89
2023/06/09 11:08:07;;;;;;;8.85;3.47;;;;;;;;;;6306659;22;20018;-88
2023/06/09 11:10:52;;;;;;;6.78;3.30;;;;;;;;;;6305329;22;20041;-92
2023/06/09 11:13:40;;;;;;;8.63;3.40;;;;;;;;;;6304872;22;20334;-91
2023/06/09 11:16:25;;;;;;;10.68;3.47;;;;;;;;;;6304975;22;20460;-92
2023/06/09 11:19:20;;;;;;;7.35;3.17;;;;;;;;;;6282896;22;20142;-90
2023/06/09 11:22:05;;;;;;;7.05;3.13;;;;;;;;;;6282972;22;20333;-89
2023/06/09 11:24:50;;;;;;;9.13;3.72;;;;;;;;;;6305076;22;20041;-91
2023/06/09 11:27:35;;;;;;;7.15;3.67;;;;;;;;;;6306146;22;20014;-90
2023/06/09 11:30:20;;;;;;;4.38;2.95;;;;;;;;;;6282974;22;20053;-91
2023/06/09 11:33:05;;;;;;;4.85;3.10;;;;;;;;;;6305447;22;20054;-90
2023/06/09 11:35:50;;;;;;;5.43;3.03;;;;;;;;;;6302925;22;20010;-90
2023/06/09 11:38:35;;;;;;;7.97;3.20;;;;;;;;;;6305783;22;20022;-91
2023/06/09 11:41:21;;;;;;;5.93;3.03;;;;;;;;;;6305878;22;20045;-88
2023/06/09 11:44:06;;;;;;;6.65;3.20;;;;;;;;;;6304943;22;20031;-88
2023/06/09 11:46:50;;;;;;;5.80;3.20;;;;;;;;;;6303781;22;20010;-88
2023/06/09 11:49:35;;;;;;;6.25;3.97;;;;;;;;;;6304378;22;20338;-89
2023/06/09 11:52:19;;;;;;;4.90;3.50;;;;;;;;;;6304217;22;20091;-88
2023/06/09 11:55:05;;;;;;;6.60;3.55;;;;;;;;;;6305041;22;20177;-89
2023/06/09 11:57:50;;;;;;;7.10;3.60;;;;;;;;;;6304890;22;20014;-90
2023/06/09 12:00:38;;;;;;;10.57;3.70;;;;;;;;;;6304348;22;20023;-89
2023/06/09 12:03:23;;;;;;;5.03;3.03;;;;;;;;;;6304476;22;20014;-88
2023/06/09 12:06:08;;;;;;;8.57;3.85;;;;;;;;;;6305049;22;20015;-90
2023/06/09 12:08:52;;;;;;;6.07;3.10;;;;;;;;;;6303642;22;20456;-90
2023/06/09 12:11:48;;;;;;;8.05;3.13;;;;;;;;;;6304315;22;20064;-90
2023/06/09 12:14:33;;;;;;;6.47;3.20;;;;;;;;;;6304640;22;20329;-89
2023/06/09 12:17:18;;;;;;;7.38;3.25;;;;;;;;;;6282325;22;20065;-89
2023/06/09 12:20:28;;;;;;;8.63;4.18;;;30.30;52.30;;;;;;6282027;22;20018;-90
2023/06/09 12:23:14;;;;;;;7.40;3.25;;;;;;;;;;6305275;22;20042;-91
2023/06/09 12:26:05;;;;;;;5.80;3.40;;;;;;;;;;6279550;22;20092;-89
2023/06/09 12:28:53;;;;;;;5.28;3.33;;;;;;;;;;6302012;22;20022;-91
2023/06/09 12:31:49;;;;;;;6.35;3.30;;;;;;;;;;6304367;22;20015;-90
2023/06/09 12:34:34;;;;;;;8.98;3.40;;;;;;;;;;6305235;22;20022;-89
2023/06/09 12:37:19;;;;;;;6.47;4.10;;;;;;;;;;6305285;22;20022;-91
2023/06/09 12:40:07;;;;;;;7.32;3.60;;;;;;;;;;6281787;22;20416;-89
2023/06/09 12:42:52;;;;;;;6.60;3.38;;;;;;;;;;6305168;22;20444;-91
2023/06/09 12:45:37;;;;;;;7.68;3.30;;;;;;;;;;6304198;22;20337;-91
2023/06/09 12:48:21;;;;;;;9.20;3.90;;;;;;;;;;6282419;22;20053;-90
2023/06/09 12:51:06;;;;;;;7.65;3.67;;;;;;;;;;6304694;22;20065;-91
2023/06/09 12:53:51;;;;;;;7.80;3.63;;;;;;;;;;6305517;22;20045;-91
2023/06/09 12:56:36;;;;;;;7.93;4.13;;;;;;;;;;6306000;22;20011;-91
2023/06/09 12:59:20;;;;;;;7.63;3.55;;;;;;;;;;6306037;22;20029;-91
2023/06/09 13:02:05;;;;;;;10.98;3.85;;;;;;;;;;6283637;22;20018;-91
2023/06/09 13:04:50;;;;;;;7.00;3.50;;;;;;;;;;6306321;22;20018;-91
2023/06/09 13:07:34;;;;;;;8.85;3.50;;;;;;;;;;6284462;22;20346;-90
2023/06/09 13:10:19;;;;;;;5.35;3.20;;;;;;;;;;6283702;22;20155;-89
2023/06/09 13:13:04;;;;;;;7.40;3.75;;;;;;;;;;6306776;22;20077;-89
2023/06/09 13:15:48;;;;;;;7.20;3.58;;;;;;;;;;6307359;22;20060;-89
2023/06/09 13:18:33;;;;;;;8.10;3.65;;;;;;;;;;6307137;22;20548;-88
2023/06/09 13:21:18;;;;;;;8.77;3.80;;;;;;;;;;6306653;22;20608;-89
2023/06/09 13:24:02;;;;;;;8.75;4.22;;;;;;;;;;6283596;22;20054;-90
2023/06/09 13:26:48;;;;;;;10.38;3.58;;;;;;;;;;6307381;22;20014;-90
2023/06/09 13:29:32;;;;;;;6.60;3.45;;;;;;;;;;6305962;22;20018;-90
2023/06/09 13:32:17;;;;;;;7.22;3.58;;;;;;;;;;6306754;22;20018;-90
2023/06/09 13:35:01;;;;;;;8.43;4.03;;;;;;;;;;6306558;22;20018;-91
2023/06/09 13:37:46;;;;;;;5.18;3.20;;;;;;;;;;6306996;22;20022;-87
2023/06/09 13:40:31;;;;;;;8.07;4.72;;;;;;;;;;6307503;22;20013;-90
2023/06/09 13:43:16;;;;;;;6.63;3.50;;;;;;;;;;6305097;22;20073;-89
2023/06/09 13:46:01;;;;;;;7.70;3.85;;;;;;;;;;6283382;22;20018;-92
2023/06/09 13:48:45;;;;;;;7.10;3.95;;;;;;;;;;6307100;22;20018;-90
2023/06/09 13:51:34;;;;;;;9.65;3.90;;;;;;;;;;6306903;22;20018;-91
2023/06/09 13:54:18;;;;;;;9.32;3.75;;;;;;;;;;6306520;22;20034;-90
2023/06/09 13:57:03;;;;;;;7.90;4.20;;;;;;;;;;6306449;22;20088;-90
2023/06/09 13:59:47;;;;;;;6.82;3.40;;;;;;;;;;6305785;22;20345;-91
2023/06/09 14:02:32;;;;;;;4.45;3.35;;;;;;;;;;6307059;22;20081;-90
2023/06/09 14:05:17;;;;;;;6.10;3.25;;;;;;;;;;6306161;22;20498;-90
2023/06/09 14:08:01;;;;;;;5.45;3.33;;;;;;;;;;6305585;22;20053;-90
2023/06/09 14:10:46;;;;;;;6.97;3.75;;;;;;;;;;6283980;22;20016;-89
2023/06/09 14:13:31;;;;;;;8.18;3.78;;;;;;;;;;6283920;22;20018;-89
2023/06/09 14:16:16;;;;;;;7.57;3.53;;;;;;;;;;6306371;22;20075;-89
2023/06/09 14:19:01;;;;;;;5.65;3.85;;;;;;;;;;6283551;22;20030;-89
2023/06/09 14:21:45;;;;;;;5.32;3.63;;;;;;;;;;6305493;22;20789;-88
2023/06/09 14:24:30;;;;;;;8.57;4.25;;;;;;;;;;6283555;22;20018;-88
2023/06/09 14:27:14;;;;;;;8.02;3.83;;;;;;;;;;6282887;22;20476;-89
2023/06/09 14:29:59;;;;;;;7.68;3.78;;;;;;;;;;6306804;22;20033;-88
2023/06/09 14:32:48;;;;;;;6.57;3.55;;;;;;;;;;6305297;22;20018;-91
2023/06/09 14:35:33;;;;;;;8.05;3.90;;;;;;;;;;6305400;22;20014;-89
2023/06/09 14:38:17;;;;;;;6.25;3.50;;;;;;;;;;6282981;22;20022;-89
2023/06/09 14:41:02;;;;;;;5.93;3.53;;;;;;;;;;6306691;22;20022;-89
2023/06/09 14:43:46;;;;;;;6.07;3.65;;;;;;;;;;6283816;22;20068;-87
2023/06/09 14:46:31;;;;;;;9.65;3.97;;;;;;;;;;6282981;22;20014;-88
2023/06/09 14:49:15;;;;;;;9.00;3.70;;;;;;;;;;6282743;22;20017;-90
2023/06/09 14:52:00;;;;;;;5.85;3.90;;;;;;;;;;6306497;22;20014;-88
2023/06/09 14:54:45;;;;;;;10.68;3.92;;;;;;;;;;6306470;22;20065;-87
2023/06/09 14:57:30;;;;;;;6.97;4.18;;;;;;;;;;6305013;22;20104;-87
2023/06/09 15:00:25;;;;;;;6.50;3.63;;;29.50;53.40;;;;;;6305976;22;20507;-87
2023/06/09 15:03:10;;;;;;;7.55;3.83;;;;;;;;;;6306091;22;20033;-91
2023/06/09 15:05:55;;;;;;;10.85;4.25;;;;;;;;;;6306494;22;20014;-89
2023/06/09 15:08:40;;;;;;;5.82;3.88;;;;;;;;;;6306294;22;20444;-88
2023/06/09 15:11:25;;;;;;;7.57;4.28;;;;;;;;;;6304409;22;20014;-90
2023/06/09 15:14:10;;;;;;;8.10;3.72;;;;;;;;;;6304721;22;20018;-89
2023/06/09 15:16:55;;;;;;;10.00;4.20;;;;;;;;;;6306261;22;20018;-88
2023/06/09 15:19:40;;;;;;;6.35;4.13;;;;;;;;;;6283103;22;20076;-88
2023/06/09 15:22:24;;;;;;;7.22;4.13;;;;;;;;;;6282466;22;20124;-87
2023/06/09 15:25:10;;;;;;;8.13;4.28;;;;;;;;;;6283019;22;20018;-89
2023/06/09 15:28:02;;;;;;;6.55;3.63;;;;;;;;;;6306221;22;20022;-88
2023/06/09 15:30:48;;;;;;;9.73;4.05;;;;;;;;;;6306453;22;20011;-86
2023/06/09 15:33:32;;;;;;;8.45;3.90;;;;;;;;;;6304251;22;20009;-88
2023/06/09 15:36:17;;;;;;;7.43;3.65;;;;;;;;;;6305240;22;20072;-88
2023/06/09 15:39:02;;;;;;;7.13;3.85;;;;;;;;;;6305988;22;20464;-89
2023/06/09 15:41:47;;;;;;;9.98;4.20;;;;;;;;;;6304821;22;20014;-91
2023/06/09 15:44:32;;;;;;;10.63;4.15;;;;;;;;;;6305388;22;20011;-89
2023/06/09 15:47:17;;;;;;;11.15;4.10;;;;;;;;;;6282444;22;20068;-89
2023/06/09 15:50:01;;;;;;;9.00;4.40;;;;;;;;;;6305958;22;20015;-91
2023/06/09 15:52:46;;;;;;;10.80;3.78;;;;;;;;;;6282846;22;20472;-88
2023/06/09 15:55:30;;;;;;;13.05;4.30;;;;;;;;;;6305289;22;20057;-88
2023/06/09 15:58:15;;;;;;;7.47;3.63;;;;;;;;;;6305352;22;20023;-89
2023/06/09 16:01:00;;;;;;;7.20;4.10;;;;;;;;;;6305863;22;20014;-89
2023/06/09 16:03:44;;;;;;;13.48;4.30;;;;;;;;;;6305802;22;20488;-89
2023/06/09 16:06:29;;;;;;;6.55;4.30;;;;;;;;;;6303736;22;20018;-89
2023/06/09 16:09:13;;;;;;;8.93;3.75;;;;;;;;;;6282685;22;20052;-89
2023/06/09 16:11:58;;;;;;;7.93;4.10;;;;;;;;;;6281206;22;20076;-89
2023/06/09 16:14:42;;;;;;;9.48;4.35;;;;;;;;;;6301175;22;20448;-91
2023/06/09 16:17:27;;;;;;;10.30;4.60;;;;;;;;;;6281824;22;20026;-90
2023/06/09 16:20:11;;;;;;;9.75;3.90;;;;;;;;;;6306203;22;20095;-88
2023/06/09 16:22:56;;;;;;;9.95;4.55;;;;;;;;;;6305796;22;20107;-89